Time;durP1;ratioP1;P1;durP2;ratioP2;P2;SDS_P1;SDS_P2;PMS_P1;PMS_P2;Temp;Humidity;BMP_temperature;BMP_pressure;BME280_temperature;BME280_humidity;BME280_pressure;Samples;Min_cycle;Max_cycle;Signal;HPM_P1;HPM_P2
2021/12/06 00:00:41;;;;;;;30.13;11.37;;;;;;;3.86;100.00;97163.97;5164624;27;21145;-68
2021/12/06 00:03:13;;;;;;;33.53;11.30;;;;;;;3.74;100.00;97156.88;5146293;27;20667;-69
2021/12/06 00:05:39;;;;;;;38.33;11.53;;;;;;;3.67;100.00;97160.72;5152750;27;20595;-69
2021/12/06 00:08:06;;;;;;;51.47;13.30;;;;;;;3.71;100.00;97160.00;5160936;27;20629;-68
2021/12/06 00:10:33;;;;;;;24.73;10.10;;;;;;;3.77;100.00;97160.91;5163852;27;20628;-68
2021/12/06 00:13:00;;;;;;;30.20;10.50;;;;;;;3.81;100.00;97154.09;5164565;27;20627;-68
2021/12/06 00:15:31;;;;;;;27.37;10.30;;;;;;;3.90;100.00;97155.31;5161218;27;20651;-68
2021/12/06 00:17:58;;;;;;;48.67;11.33;;;;;;;3.93;100.00;97160.13;5160942;27;20600;-67
2021/12/06 00:20:26;;;;;;;26.00;11.37;;;;;;;3.86;100.00;97172.69;5155492;27;20604;-68
2021/12/06 00:22:53;;;;;;;69.37;13.27;;;;;;;3.84;100.00;97172.09;5146099;27;20936;-67
2021/12/06 00:25:21;;;;;;;27.40;9.97;;;;;;;3.92;100.00;97171.75;5163062;27;20594;-67
2021/12/06 00:27:48;;;;;;;43.97;10.70;;;;;;;3.93;100.00;97170.69;5160665;27;21311;-68
2021/12/06 00:30:16;;;;;;;28.23;11.37;;;;;;;3.85;100.00;97163.16;5160851;27;20631;-69
2021/12/06 00:32:43;;;;;;;69.23;11.73;;;;;;;3.83;100.00;97167.88;5163941;27;20650;-68
2021/12/06 00:35:18;;;;;;;28.60;11.33;;;;;;;3.82;100.00;97176.84;5163796;27;20618;-68
2021/12/06 00:37:55;;;;;;;37.67;10.97;;;;;;;3.74;100.00;97164.81;5153012;27;20603;-69
2021/12/06 00:40:23;;;;;;;32.70;11.07;;;;;;;3.65;100.00;97176.03;5161708;27;20603;-68
2021/12/06 00:42:49;;;;;;;57.80;12.20;;;;;;;3.64;100.00;97175.22;5163849;27;20623;-69
2021/12/06 00:45:17;;;;;;;24.97;9.93;;;;;;;3.81;100.00;97176.03;5163220;27;20599;-68
2021/12/06 00:47:44;;;;;;;37.67;11.57;;;;;;;3.84;100.00;97173.97;5160328;27;20595;-68
2021/12/06 00:50:11;;;;;;;31.33;11.53;;;;;;;3.94;100.00;97174.94;5153224;27;20614;-69
2021/12/06 00:52:38;;;;;;;45.83;11.77;;;;;;;3.88;100.00;97185.66;5163701;27;20639;-71
2021/12/06 00:55:09;;;;;;;36.37;11.47;;;;;;;3.75;100.00;97186.75;5163686;27;20606;-68
2021/12/06 00:57:36;;;;;;;41.60;11.50;;;;;;;3.76;100.00;97183.88;5160462;27;21194;-68
2021/12/06 01:00:05;;;;;;;29.80;9.83;;;;;;;3.97;100.00;97185.03;5159921;27;20607;-68
2021/12/06 01:02:32;;;;;;;35.47;11.87;;;;;;;3.84;100.00;97190.59;5162848;27;20629;-68
2021/12/06 01:04:59;;;;;;;31.77;10.37;;;;;;;3.84;100.00;97193.25;5163249;27;20606;-67
2021/12/06 01:07:25;;;;;;;45.40;11.90;;;;;;;3.55;100.00;97187.19;5161529;27;20605;-68
2021/12/06 01:09:52;;;;;;;62.70;11.97;;;;;;;3.53;100.00;97188.47;5159948;27;20600;-68
2021/12/06 01:12:20;;;;;;;43.63;10.33;;;;;;;3.37;100.00;97184.75;5160395;27;20655;-68
2021/12/06 01:14:47;;;;;;;46.83;12.50;;;;;;;3.26;100.00;97193.47;5163393;27;20614;-68
2021/12/06 01:17:13;;;;;;;49.63;13.27;;;;;;;3.39;100.00;97190.56;5163205;27;20663;-68
2021/12/06 01:19:41;;;;;;;45.37;10.63;;;;;;;3.63;100.00;97193.91;5152827;27;20626;-67
2021/12/06 01:22:21;;;;;;;33.27;11.73;;;;;;;3.57;100.00;97205.41;5159697;27;20633;-68
2021/12/06 01:24:49;;;;;;;48.13;10.77;;;;;;;3.65;100.00;97199.78;5134300;27;20648;-68
2021/12/06 01:27:33;;;;;;;41.30;11.37;;;;;;;3.71;100.00;97201.47;5159674;27;20628;-68
2021/12/06 01:30:19;;;;;;;33.73;12.30;;;;;;;3.75;100.00;97205.22;5163247;27;20618;-68
2021/12/06 01:33:15;;;;;;;42.07;10.50;;;;;;;3.84;100.00;97201.16;5152212;27;20639;-68
2021/12/06 01:41:12;;;;;;;23.80;9.30;;;;;;;3.77;100.00;97208.44;5118289;28;20629;-68
2021/12/06 01:44:02;;;;;;;48.87;11.93;;;;;;;3.81;100.00;97206.91;5109966;28;21165;-67
2021/12/06 01:46:30;;;;;;;47.33;13.87;;;;;;;3.63;100.00;97204.47;5109893;28;20597;-68
2021/12/06 01:48:58;;;;;;;61.80;12.63;;;;;;;3.48;100.00;97222.66;5114294;28;20600;-69
2021/12/06 01:51:25;;;;;;;29.70;11.67;;;;;;;3.35;100.00;97212.38;5121470;28;20690;-68
2021/12/06 01:53:52;;;;;;;54.93;13.20;;;;;;;3.49;100.00;97205.81;5121922;28;20622;-67
2021/12/06 01:56:18;;;;;;;42.30;14.50;;;;;;;3.51;100.00;97203.72;5102851;28;20626;-68
2021/12/06 01:58:45;;;;;;;65.77;14.93;;;;;;;3.33;100.00;97219.72;5118160;28;20598;-68
2021/12/06 02:01:12;;;;;;;45.33;12.70;;;;;;;3.31;100.00;97211.25;5118076;28;21034;-68
2021/12/06 02:03:40;;;;;;;34.50;11.57;;;;;;;3.34;100.00;97216.88;5109624;28;20598;-68
2021/12/06 02:06:07;;;;;;;64.90;15.93;;;;;;;3.34;100.00;97216.88;5109552;28;20627;-68
2021/12/06 02:08:34;;;;;;;36.53;12.13;;;;;;;3.53;100.00;97204.31;5109550;28;21004;-68
2021/12/06 02:11:03;;;;;;;46.27;12.40;;;;;;;3.63;100.00;97213.19;5109561;28;20606;-68
2021/12/06 02:13:37;;;;;;;29.30;9.40;;;;;;;3.69;100.00;97212.25;5109561;28;20601;-67
2021/12/06 02:16:05;;;;;;;59.30;12.10;;;;;;;3.73;100.00;97216.03;5109503;28;20597;-69
2021/12/06 02:18:42;;;;;;;31.50;11.70;;;;;;;3.84;100.00;97217.00;5110649;28;21204;-68
2021/12/06 02:21:17;;;;;;;62.67;13.13;;;;;;;3.89;100.00;97222.41;5121961;28;20643;-68
2021/12/06 02:23:44;;;;;;;49.10;12.87;;;;;;;3.97;100.00;97227.28;5109525;28;20609;-68
2021/12/06 02:26:12;;;;;;;82.77;12.70;;;;;;;3.91;100.00;97217.66;5091442;28;20597;-68
2021/12/06 02:28:38;;;;;;;38.20;12.23;;;;;;;4.01;100.00;97225.78;5118065;28;20635;-68
2021/12/06 02:31:05;;;;;;;40.77;12.57;;;;;;;3.97;100.00;97216.72;5117772;28;20607;-67
2021/12/06 02:33:32;;;;;;;73.57;13.50;;;;;;;3.76;100.00;97220.03;5120421;28;20605;-68
2021/12/06 02:35:59;;;;;;;55.07;14.03;;;;;;;3.41;100.00;97227.28;5121221;28;20632;-67
2021/12/06 02:38:27;;;;;;;39.80;12.00;;;;;;;3.33;100.00;97225.00;5119984;28;20593;-68
2021/12/06 02:40:53;;;;;;;104.67;14.37;;;;;;;3.23;100.00;97217.69;5121497;28;20630;-67
2021/12/06 02:43:20;;;;;;;62.53;14.83;;;;;;;3.03;100.00;97219.91;5122376;28;21267;-67
2021/12/06 02:45:47;;;;;;;51.73;13.13;;;;;;;3.04;100.00;97211.75;5124935;28;20596;-68
2021/12/06 02:48:15;;;;;;;43.17;11.53;;;;;;;2.95;100.00;97218.41;5124542;28;20600;-67
2021/12/06 02:50:45;;;;;;;66.33;13.40;;;;;;;2.94;100.00;97222.09;5110163;28;20711;-67
2021/12/06 02:53:12;;;;;;;55.47;13.63;;;;;;;3.01;100.00;97222.78;5121116;28;20713;-67
2021/12/06 02:55:43;;;;;;;30.43;9.17;;;;;;;3.07;100.00;97226.31;5112879;28;20623;-67
2021/12/06 02:58:16;;;;;;;49.50;11.83;;;;;;;3.19;100.00;97227.91;5112486;28;20612;-67
2021/12/06 03:00:47;;;;;;;82.80;13.87;;;;;;;3.00;100.00;97231.72;5116781;28;20612;-67
2021/12/06 03:03:14;;;;;;;64.87;11.87;;;;;;;3.05;100.00;97229.19;5124434;28;20620;-66
2021/12/06 03:05:41;;;;;;;40.13;10.53;;;;;;;2.96;100.00;97230.59;5121006;28;20608;-67
2021/12/06 03:08:08;;;;;;;79.17;14.10;;;;;;;2.89;100.00;97229.91;5120768;28;20609;-67
2021/12/06 03:10:35;;;;;;;38.23;10.50;;;;;;;3.11;100.00;97233.53;5124007;28;20596;-67
2021/12/06 03:13:05;;;;;;;48.10;11.30;;;;;;;3.16;100.00;97231.00;5124271;28;20635;-67
2021/12/06 03:15:32;;;;;;;62.43;12.73;;;;;;;3.07;100.00;97240.31;5121720;28;20628;-67
2021/12/06 03:17:59;;;;;;;34.10;10.17;;;;;;;3.24;100.00;97233.28;5120827;28;20609;-67
2021/12/06 03:20:25;;;;;;;82.87;13.30;;;;;;;3.43;100.00;97241.06;5129044;28;20619;-67
2021/12/06 03:22:52;;;;;;;66.43;12.83;;;;;;;3.41;100.00;97245.75;5120754;28;20604;-68
2021/12/06 03:25:19;;;;;;;41.00;11.90;;;;;;;3.48;100.00;97249.88;5099888;28;20620;-67
2021/12/06 03:27:48;;;;;;;58.40;12.90;;;;;;;3.59;100.00;97250.88;5120570;28;20589;-68
2021/12/06 03:30:16;;;;;;;48.30;10.73;;;;;;;3.40;100.00;97260.81;5120418;28;20617;-68
2021/12/06 03:32:43;;;;;;;70.87;11.90;;;;;;;3.68;100.00;97255.53;5123761;28;20631;-68
2021/12/06 03:35:11;;;;;;;53.13;12.37;;;;;;;3.81;100.00;97260.53;5123534;28;20658;-68
2021/12/06 03:37:38;;;;;;;49.60;10.47;;;;;;;3.78;100.00;97262.84;5120257;28;20604;-68
2021/12/06 03:40:07;;;;;;;71.37;10.87;;;;;;;3.74;100.00;97270.44;5120249;28;21403;-68
2021/12/06 03:42:34;;;;;;;65.00;11.87;;;;;;;3.81;100.00;97272.94;5123233;28;20638;-68
2021/12/06 03:45:00;;;;;;;50.77;11.60;;;;;;;3.91;100.00;97259.13;5123850;28;20600;-67
2021/12/06 03:47:31;;;;;;;71.87;13.70;;;;;;;3.99;100.00;97264.81;5121620;28;20601;-67
2021/12/06 03:49:58;;;;;;;69.57;11.50;;;;;;;4.05;100.00;97274.47;5126198;28;20609;-67
2021/12/06 03:52:25;;;;;;;74.87;12.43;;;;;;;4.10;100.00;97269.28;5121744;28;20657;-68
2021/12/06 03:54:52;;;;;;;34.60;11.00;;;;;;;4.00;100.00;97274.38;5120124;28;20670;-68
2021/12/06 03:57:20;;;;;;;48.33;11.20;;;;;;;3.92;100.00;97277.41;5120567;28;20609;-68
2021/12/06 03:59:47;;;;;;;45.30;10.80;;;;;;;4.06;100.00;97270.78;5123556;28;20605;-68
2021/12/06 04:02:14;;;;;;;61.73;12.73;;;;;;;4.08;100.00;97276.66;5123355;28;20614;-67
2021/12/06 04:04:42;;;;;;;59.17;12.13;;;;;;;4.05;100.00;97269.19;5119910;28;20627;-67
2021/12/06 04:07:10;;;;;;;98.63;15.20;;;;;;;4.04;100.00;97275.50;5119787;28;20628;-67
2021/12/06 04:09:37;;;;;;;32.37;10.87;;;;;;;4.03;100.00;97276.53;5123195;28;20615;-67
2021/12/06 04:12:06;;;;;;;84.53;12.20;;;;;;;4.08;100.00;97287.22;5122909;28;20632;-67
2021/12/06 04:14:33;;;;;;;60.23;14.33;;;;;;;4.11;100.00;97281.47;5120245;28;20698;-68
2021/12/06 04:17:00;;;;;;;58.20;11.80;;;;;;;4.14;100.00;97285.47;5119645;28;20606;-68
2021/12/06 04:19:27;;;;;;;42.03;10.10;;;;;;;4.09;100.00;97294.09;5128243;28;20626;-67
2021/12/06 04:21:55;;;;;;;66.17;11.13;;;;;;;4.03;100.00;97288.94;5122930;28;20613;-67
2021/12/06 04:24:23;;;;;;;47.10;11.13;;;;;;;4.08;100.00;97295.13;5121640;28;20605;-67
2021/12/06 04:26:50;;;;;;;55.60;10.87;;;;;;;4.08;100.00;97296.97;5119540;28;20608;-68
2021/12/06 04:29:17;;;;;;;58.37;12.57;;;;;;;4.09;100.00;97294.09;5120017;28;20593;-67
2021/12/06 04:31:47;;;;;;;39.07;10.60;;;;;;;3.92;100.00;97303.81;5123047;28;20721;-67
2021/12/06 04:34:14;;;;;;;68.23;13.80;;;;;;;3.74;100.00;97304.75;5122373;28;20629;-67
2021/12/06 04:36:43;;;;;;;57.93;14.67;;;;;;;3.74;100.00;97312.69;5119380;28;20609;-67
2021/12/06 04:39:15;;;;;;;59.63;12.37;;;;;;;3.75;100.00;97313.50;5119292;28;20605;-68
2021/12/06 04:41:42;;;;;;;53.27;11.20;;;;;;;3.74;100.00;97314.56;5119171;28;20586;-68
2021/12/06 04:44:10;;;;;;;71.03;11.83;;;;;;;3.76;100.00;97323.03;5119178;28;20605;-67
2021/12/06 04:46:37;;;;;;;45.70;12.07;;;;;;;3.83;100.00;97317.63;5122353;28;20596;-68
2021/12/06 04:49:04;;;;;;;45.17;12.30;;;;;;;3.90;100.00;97329.63;5122384;28;20630;-67
2021/12/06 04:51:31;;;;;;;49.77;11.70;;;;;;;3.70;100.00;97334.53;5104433;28;21057;-68
2021/12/06 04:53:58;;;;;;;48.50;12.33;;;;;;;3.51;100.00;97346.25;5122498;28;20651;-68
2021/12/06 04:56:30;;;;;;;44.00;10.70;;;;;;;3.31;100.00;97340.56;5120669;28;20613;-67
2021/12/06 04:59:06;;;;;;;52.30;11.87;;;;;;;3.53;100.00;97341.56;5119030;28;20609;-67
2021/12/06 05:01:34;;;;;;;93.33;13.40;;;;;;;3.60;100.00;97336.94;5120879;28;20593;-67
2021/12/06 05:04:06;;;;;;;74.20;13.03;;;;;;;3.64;100.00;97341.56;5122193;28;20600;-68
2021/12/06 05:06:36;;;;;;;53.10;12.97;;;;;;;3.54;100.00;97343.16;5119461;28;20600;-70
2021/12/06 05:09:08;;;;;;;64.23;12.13;;;;;;;3.55;100.00;97350.88;5118566;28;20605;-68
2021/12/06 05:11:37;;;;;;;31.53;9.20;;;;;;;3.69;100.00;97352.19;5121718;28;20597;-68
2021/12/06 05:14:04;;;;;;;47.13;12.30;;;;;;;3.79;100.00;97352.41;5122121;28;20670;-68
2021/12/06 05:16:33;;;;;;;46.63;10.07;;;;;;;3.90;100.00;97353.41;5119554;28;20592;-68
2021/12/06 05:19:00;;;;;;;35.13;9.87;;;;;;;3.93;100.00;97363.50;5123550;28;20600;-68
2021/12/06 05:21:27;;;;;;;72.70;12.00;;;;;;;4.02;100.00;97367.41;5121856;28;20639;-67
2021/12/06 05:23:54;;;;;;;34.23;11.10;;;;;;;4.04;100.00;97364.53;5121969;28;20608;-67
2021/12/06 05:26:20;;;;;;;65.93;11.40;;;;;;;4.01;100.00;97363.16;5120829;28;21257;-68
2021/12/06 05:28:51;;;;;;;44.03;10.87;;;;;;;3.97;100.00;97364.66;5118380;28;20609;-68
2021/12/06 05:31:20;;;;;;;69.20;10.10;;;;;;;3.83;100.00;97367.81;5118751;28;20605;-68
2021/12/06 05:33:53;;;;;;;43.67;10.70;;;;;;;3.69;100.00;97377.81;5121768;28;20642;-68
2021/12/06 05:36:20;;;;;;;46.60;9.47;;;;;;;3.70;100.00;97396.06;5120511;28;20642;-68
2021/12/06 05:38:49;;;;;;;84.00;12.63;;;;;;;3.70;100.00;97385.50;5118357;28;20597;-69
2021/12/06 05:41:16;;;;;;;43.20;10.50;;;;;;;3.71;100.00;97388.97;5118457;28;20601;-68
2021/12/06 05:43:43;;;;;;;53.60;9.97;;;;;;;3.78;100.00;97400.19;5121674;28;20616;-68
2021/12/06 05:46:11;;;;;;;55.33;11.43;;;;;;;3.84;100.00;97388.69;5121527;28;20589;-67
2021/12/06 05:48:38;;;;;;;44.07;10.30;;;;;;;3.81;100.00;97397.88;5119986;28;20609;-68
2021/12/06 05:51:04;;;;;;;34.53;9.77;;;;;;;3.80;100.00;97395.50;5122902;28;20612;-67
2021/12/06 05:53:31;;;;;;;29.40;9.07;;;;;;;3.72;100.00;97403.75;5120582;28;20641;-68
2021/12/06 05:55:57;;;;;;;74.30;11.37;;;;;;;3.79;100.00;97401.78;5121624;28;20616;-67
2021/12/06 05:58:27;;;;;;;99.77;13.20;;;;;;;3.93;100.00;97405.00;5119829;28;20612;-68
2021/12/06 06:00:55;;;;;;;52.73;9.00;;;;;;;4.01;100.00;97408.06;5118125;28;20672;-67
2021/12/06 06:03:24;;;;;;;26.40;8.40;;;;;;;4.06;100.00;97410.81;5119252;28;20792;-69
2021/12/06 06:05:52;;;;;;;41.33;8.80;;;;;;;3.95;100.00;97414.28;5121717;28;20618;-70
2021/12/06 06:08:18;;;;;;;36.93;9.13;;;;;;;3.77;100.00;97419.72;5102902;28;20632;-67
2021/12/06 06:10:47;;;;;;;42.27;9.57;;;;;;;3.63;100.00;97429.69;5118147;28;20639;-68
2021/12/06 06:13:15;;;;;;;69.23;11.17;;;;;;;3.55;100.00;97429.25;5119767;28;20649;-67
2021/12/06 06:15:42;;;;;;;67.80;9.77;;;;;;;3.66;100.00;97425.78;5121957;28;20601;-68
2021/12/06 06:18:10;;;;;;;37.97;9.53;;;;;;;3.75;100.00;97432.34;5121969;28;20628;-68
2021/12/06 06:20:41;;;;;;;65.77;11.50;;;;;;;3.90;100.00;97427.38;5130355;28;20597;-68
2021/12/06 06:23:08;;;;;;;50.30;9.87;;;;;;;3.98;100.00;97429.69;5121725;28;20621;-67
2021/12/06 06:25:34;;;;;;;41.23;10.87;;;;;;;3.92;100.00;97441.16;5124666;28;20617;-67
2021/12/06 06:28:03;;;;;;;56.27;9.77;;;;;;;3.72;100.00;97433.59;5125265;28;20592;-68
2021/12/06 06:30:29;;;;;;;73.93;11.47;;;;;;;3.64;100.00;97449.81;5122866;28;20596;-67
2021/12/06 06:32:56;;;;;;;41.93;10.00;;;;;;;3.64;100.00;97452.44;5121428;28;20636;-67
2021/12/06 06:35:24;;;;;;;44.10;9.97;;;;;;;3.43;100.00;97454.84;5122635;28;20651;-69
2021/12/06 06:37:53;;;;;;;52.23;10.17;;;;;;;3.54;100.00;97464.59;5125068;28;21109;-68
2021/12/06 06:40:20;;;;;;;41.73;9.10;;;;;;;3.49;100.00;97460.03;5123858;28;20600;-67
2021/12/06 06:42:48;;;;;;;38.33;8.83;;;;;;;3.66;100.00;97470.69;5121355;28;20693;-67
2021/12/06 06:45:17;;;;;;;26.33;9.33;;;;;;;3.75;100.00;97471.94;5121421;28;20624;-67
2021/12/06 06:47:44;;;;;;;55.23;10.57;;;;;;;3.65;100.00;97477.00;5124923;28;21205;-67
2021/12/06 06:50:11;;;;;;;37.53;9.37;;;;;;;3.54;100.00;97470.69;5131559;28;20619;-68
2021/12/06 06:52:38;;;;;;;27.53;7.90;;;;;;;3.54;100.00;97483.06;5121422;28;20601;-69
2021/12/06 06:55:09;;;;;;;33.17;8.80;;;;;;;3.65;100.00;97480.44;5121153;28;20605;-67
2021/12/06 06:57:36;;;;;;;67.47;10.40;;;;;;;3.72;100.00;97480.31;5124335;28;20623;-68
2021/12/06 07:00:07;;;;;;;34.53;9.20;;;;;;;3.74;100.00;97483.56;5124634;28;20616;-68
2021/12/06 07:02:33;;;;;;;25.50;8.80;;;;;;;3.55;100.00;97476.78;5121748;28;20646;-68
2021/12/06 07:05:00;;;;;;;29.07;8.50;;;;;;;3.53;100.00;97484.91;5121086;28;20663;-68
2021/12/06 07:07:27;;;;;;;34.20;8.53;;;;;;;3.33;100.00;97483.63;5122557;28;20605;-68
2021/12/06 07:09:53;;;;;;;35.83;7.37;;;;;;;3.13;100.00;97499.75;5124414;28;20604;-68
2021/12/06 07:12:21;;;;;;;61.17;10.37;;;;;;;3.11;100.00;97502.63;5105066;28;20608;-67
2021/12/06 07:14:48;;;;;;;70.83;12.17;;;;;;;3.16;100.00;97508.03;5120608;28;20652;-67
2021/12/06 07:17:16;;;;;;;52.43;9.93;;;;;;;3.22;100.00;97509.75;5120629;28;20652;-67
2021/12/06 07:19:43;;;;;;;58.47;10.40;;;;;;;3.00;100.00;97518.44;5130880;28;20612;-67
2021/12/06 07:22:11;;;;;;;42.20;9.27;;;;;;;3.09;100.00;97520.53;5123962;28;20618;-67
2021/12/06 07:24:38;;;;;;;78.67;12.00;;;;;;;3.43;100.00;97521.63;5102151;28;20589;-68
2021/12/06 07:27:05;;;;;;;103.27;11.43;;;;;;;3.52;100.00;97520.28;5120357;28;20726;-67
2021/12/06 07:29:35;;;;;;;62.20;9.90;;;;;;;3.68;100.00;97513.53;5123106;28;20626;-67
2021/12/06 07:32:05;;;;;;;42.97;8.47;;;;;;;3.71;100.00;97511.19;5123996;28;20588;-68
2021/12/06 07:34:31;;;;;;;93.67;12.90;;;;;;;3.68;100.00;97521.44;5121006;28;20639;-68
2021/12/06 07:36:58;;;;;;;49.27;10.00;;;;;;;3.51;100.00;97517.84;5120303;28;20631;-67
2021/12/06 07:39:24;;;;;;;41.73;9.37;;;;;;;3.61;100.00;97518.09;5121680;28;20812;-68
2021/12/06 07:41:52;;;;;;;86.23;10.73;;;;;;;3.68;100.00;97524.88;5123692;28;20600;-68
2021/12/06 07:44:18;;;;;;;29.37;8.47;;;;;;;3.57;100.00;97527.50;5122914;28;20593;-68
2021/12/06 07:46:46;;;;;;;55.73;9.63;;;;;;;3.69;100.00;97530.94;5119950;28;20642;-68
2021/12/06 07:49:13;;;;;;;63.03;9.50;;;;;;;3.76;100.00;97529.03;5126662;28;20687;-67
2021/12/06 07:51:40;;;;;;;71.80;11.13;;;;;;;3.38;100.00;97533.88;5111469;28;20633;-68
2021/12/06 07:54:06;;;;;;;46.73;9.90;;;;;;;3.28;100.00;97540.53;5111225;28;20640;-68
2021/12/06 07:56:35;;;;;;;82.17;9.97;;;;;;;3.22;100.00;97549.34;5111211;28;20609;-68
2021/12/06 07:59:02;;;;;;;53.07;9.47;;;;;;;3.20;100.00;97554.03;5111309;28;20609;-66
2021/12/06 08:01:28;;;;;;;44.33;8.57;;;;;;;3.25;100.00;97546.25;5111192;28;20631;-68
2021/12/06 08:03:58;;;;;;;42.23;8.47;;;;;;;3.18;100.00;97536.84;5111290;28;20625;-67
2021/12/06 08:06:25;;;;;;;55.70;9.33;;;;;;;3.36;100.00;97546.50;5111222;28;20605;-67
2021/12/06 08:08:52;;;;;;;47.43;8.97;;;;;;;3.57;100.00;97549.44;5111385;28;20630;-68
2021/12/06 08:11:19;;;;;;;57.17;9.07;;;;;;;3.75;100.00;97549.34;5110995;28;20609;-68
2021/12/06 08:13:50;;;;;;;50.63;8.80;;;;;;;3.92;100.00;97556.59;5111233;28;20648;-67
2021/12/06 08:16:20;;;;;;;61.00;8.37;;;;;;;3.97;100.00;97554.88;5110959;28;20610;-67
2021/12/06 08:18:47;;;;;;;52.97;9.27;;;;;;;4.03;100.00;97546.03;5115672;28;21226;-68
2021/12/06 08:21:19;;;;;;;64.40;9.47;;;;;;;3.55;100.00;97550.69;5122921;28;20609;-67
2021/12/06 08:23:48;;;;;;;38.57;8.27;;;;;;;3.35;100.00;97566.00;5110762;28;20629;-67
2021/12/06 08:26:16;;;;;;;55.00;9.33;;;;;;;3.48;100.00;97571.09;5110791;28;20593;-67
2021/12/06 08:28:43;;;;;;;47.97;8.47;;;;;;;3.68;100.00;97558.41;5111052;28;20605;-68
2021/12/06 08:31:12;;;;;;;36.93;7.57;;;;;;;3.57;100.00;97565.28;5110906;28;20609;-68
2021/12/06 08:33:40;;;;;;;86.33;10.70;;;;;;;3.63;100.00;97568.84;5110499;28;20648;-67
2021/12/06 08:36:08;;;;;;;41.43;8.30;;;;;;;3.66;100.00;97576.31;5109245;28;20625;-68
2021/12/06 08:38:37;;;;;;;43.70;9.47;;;;;;;3.62;100.00;97575.16;5110626;28;20609;-68
2021/12/06 08:41:09;;;;;;;50.13;7.33;;;;;;;3.74;100.00;97576.00;5110713;28;20605;-67
2021/12/06 08:43:37;;;;;;;118.03;13.40;;;;;;;3.95;100.00;97578.06;5110437;28;20605;-67
2021/12/06 08:46:08;;;;;;;33.80;6.90;;;;;;;4.12;100.00;97588.75;5110485;28;20662;-67
2021/12/06 08:48:37;;;;;;;57.50;7.53;;;;;;;4.11;100.00;97587.97;5111634;28;20601;-68
2021/12/06 08:51:07;;;;;;;50.50;7.73;;;;;;;4.11;100.00;97589.81;5123642;28;20616;-68
2021/12/06 08:53:35;;;;;;;43.37;9.00;;;;;;;3.99;100.00;97573.91;5121330;28;20660;-68
2021/12/06 08:56:03;;;;;;;24.10;5.83;;;;;;;3.94;100.00;97587.03;5122348;28;20653;-68
2021/12/06 08:58:30;;;;;;;50.30;8.20;;;;;;;3.85;100.00;97596.31;5119732;28;20703;-67
2021/12/06 09:00:57;;;;;;;39.43;7.57;;;;;;;3.80;100.00;97591.72;5118565;28;20631;-68
2021/12/06 09:03:24;;;;;;;26.53;6.70;;;;;;;3.65;100.00;97606.41;5119732;28;20590;-68
2021/12/06 09:05:54;;;;;;;81.37;9.20;;;;;;;3.55;100.00;97606.13;5122115;28;20605;-67
2021/12/06 09:08:22;;;;;;;102.33;10.40;;;;;;;3.51;100.00;97612.88;5120721;28;20604;-67
2021/12/06 09:10:51;;;;;;;31.77;7.57;;;;;;;3.42;100.00;97614.25;5100213;28;20666;-67
2021/12/06 09:13:20;;;;;;;46.43;9.60;;;;;;;3.40;100.00;97611.03;5118782;28;20605;-67
2021/12/06 09:15:47;;;;;;;54.37;7.57;;;;;;;3.35;100.00;97613.50;5122346;28;20588;-67
2021/12/06 09:18:14;;;;;;;45.57;9.10;;;;;;;3.30;100.00;97616.03;5121705;28;20603;-68
2021/12/06 09:20:43;;;;;;;37.50;8.23;;;;;;;3.18;100.00;97631.81;5125115;28;20631;-68
2021/12/06 09:23:12;;;;;;;53.40;9.60;;;;;;;3.12;100.00;97624.78;5118279;28;20617;-67
2021/12/06 09:25:39;;;;;;;59.77;10.63;;;;;;;2.96;100.00;97620.94;5121646;28;20608;-68
2021/12/06 09:28:06;;;;;;;33.53;8.03;;;;;;;3.06;100.00;97618.59;5121769;28;21298;-67
2021/12/06 09:30:35;;;;;;;70.03;9.37;;;;;;;3.08;100.00;97621.78;5118968;28;20604;-68
2021/12/06 09:33:06;;;;;;;28.47;8.33;;;;;;;3.12;100.00;97630.88;5118372;28;20601;-67
2021/12/06 09:35:35;;;;;;;59.97;8.43;;;;;;;3.18;100.00;97630.00;5120382;28;20661;-67
2021/12/06 09:38:01;;;;;;;35.40;8.23;;;;;;;3.19;100.00;97639.50;5121762;28;20626;-67
2021/12/06 09:40:31;;;;;;;52.07;9.00;;;;;;;3.21;100.00;97634.81;5119561;28;20601;-67
2021/12/06 09:42:59;;;;;;;43.47;8.63;;;;;;;3.09;100.00;97639.25;5118171;28;20627;-67
2021/12/06 09:45:29;;;;;;;41.27;8.33;;;;;;;3.05;100.00;97630.16;5119368;28;20631;-67
2021/12/06 09:47:59;;;;;;;34.50;8.63;;;;;;;3.10;100.00;97632.09;5121349;28;21142;-68
2021/12/06 09:50:30;;;;;;;118.97;13.60;;;;;;;3.18;100.00;97637.91;5126414;28;20596;-67
2021/12/06 09:52:59;;;;;;;50.17;8.20;;;;;;;3.15;100.00;97624.34;5117933;28;20616;-68
2021/12/06 09:55:27;;;;;;;40.53;9.70;;;;;;;3.30;100.00;97632.69;5119330;28;20660;-68
2021/12/06 09:57:54;;;;;;;44.70;7.53;;;;;;;3.20;100.00;97638.47;5121466;28;20597;-68
2021/12/06 10:00:24;;;;;;;39.03;7.70;;;;;;;3.13;100.00;97635.09;5120357;28;20596;-68
2021/12/06 10:02:52;;;;;;;55.60;12.03;;;;;;;3.25;100.00;97633.31;5117884;28;20632;-68
2021/12/06 10:05:26;;;;;;;30.63;7.80;;;;;;;3.30;100.00;97637.13;5118337;28;20619;-68
2021/12/06 10:07:53;;;;;;;48.50;7.70;;;;;;;3.39;100.00;97630.53;5121287;28;20671;-68
2021/12/06 10:10:20;;;;;;;53.10;7.03;;;;;;;3.37;100.00;97624.66;5120476;28;20596;-68
2021/12/06 10:12:51;;;;;;;50.63;8.77;;;;;;;3.44;100.00;97633.28;5117811;28;20631;-68
2021/12/06 10:15:18;;;;;;;23.23;5.57;;;;;;;3.50;100.00;97627.09;5118109;28;20657;-67
2021/12/06 10:17:45;;;;;;;36.67;7.90;;;;;;;3.45;100.00;97625.16;5121201;28;20626;-67
2021/12/06 10:20:12;;;;;;;32.40;6.40;;;;;;;3.66;100.00;97626.47;5128038;28;20596;-67
2021/12/06 10:22:41;;;;;;;71.00;8.03;;;;;;;3.74;100.00;97626.16;5117697;28;20602;-68
2021/12/06 10:25:08;;;;;;;42.10;7.00;;;;;;;3.69;100.00;97620.75;5117527;28;20619;-67
2021/12/06 10:27:35;;;;;;;40.90;6.50;;;;;;;3.70;100.00;97619.72;5120554;28;20615;-67
2021/12/06 10:30:06;;;;;;;38.27;6.90;;;;;;;3.63;100.00;97617.16;5121071;28;20596;-67
2021/12/06 10:32:36;;;;;;;111.17;10.67;;;;;;;3.77;100.00;97618.59;5118208;28;20628;-67
2021/12/06 10:35:07;;;;;;;59.20;9.53;;;;;;;3.87;100.00;97623.31;5117291;28;20696;-68
2021/12/06 10:37:39;;;;;;;45.07;12.07;;;;;;;3.81;100.00;97614.47;5120338;28;20605;-67
2021/12/06 10:40:10;;;;;;;35.37;5.63;;;;;;;3.75;100.00;97619.84;5121123;28;20628;-67
2021/12/06 10:42:40;;;;;;;41.37;7.43;;;;;;;3.93;100.00;97608.41;5117734;28;20597;-67
2021/12/06 10:45:11;;;;;;;30.07;7.07;;;;;;;3.87;100.00;97607.44;5117414;28;21456;-67
2021/12/06 10:47:38;;;;;;;30.73;6.23;;;;;;;3.76;100.00;97610.88;5120640;28;20597;-67
2021/12/06 10:50:16;;;;;;;29.83;6.60;;;;;;;3.80;100.00;97618.16;5127696;28;20604;-67
2021/12/06 10:52:52;;;;;;;35.93;6.87;;;;;;;3.97;100.00;97606.91;5108967;28;20635;-67
2021/12/06 10:55:22;;;;;;;23.53;6.20;;;;;;;3.87;100.00;97611.97;5108644;28;20648;-68
2021/12/06 10:57:51;;;;;;;39.07;5.43;;;;;;;3.89;100.00;97605.41;5109027;28;20641;-68
2021/12/06 11:00:29;;;;;;;33.80;9.17;;;;;;;4.04;100.00;97597.84;5110623;28;20962;-68
2021/12/06 11:02:56;;;;;;;30.57;5.63;;;;;;;4.07;100.00;97596.56;5112475;28;20602;-67
2021/12/06 11:05:24;;;;;;;39.23;7.20;;;;;;;4.13;100.00;97596.47;5112119;28;20627;-67
2021/12/06 11:07:57;;;;;;;56.80;7.10;;;;;;;4.04;100.00;97600.47;5112457;28;20605;-68
2021/12/06 11:10:26;;;;;;;47.43;7.27;;;;;;;4.13;100.00;97596.47;5112154;28;20767;-68
2021/12/06 11:13:28;;;;;;;50.30;6.83;;;;;;;4.15;100.00;97596.22;5112306;28;20631;-68
2021/12/06 11:16:08;;;;;;;51.70;8.03;;;;;;;4.22;100.00;97587.16;5110071;28;20660;-68
2021/12/06 11:18:44;;;;;;;53.20;6.70;;;;;;;4.06;100.00;97584.38;5113187;28;20605;-68
2021/12/06 11:21:25;;;;;;;26.33;6.17;;;;;;;4.20;100.00;97591.88;5106548;28;20593;-68
2021/12/06 11:24:18;;;;;;;30.33;6.50;;;;;;;4.13;100.00;97585.09;5112044;28;20647;-68
2021/12/06 11:26:50;;;;;;;78.83;9.77;;;;;;;4.15;100.00;97589.09;5120244;28;20613;-68
2021/12/06 11:29:21;;;;;;;37.43;5.90;;;;;;;4.25;100.00;97588.53;5120388;28;20605;-68
2021/12/06 11:31:59;;;;;;;51.00;7.57;;;;;;;4.24;100.00;97597.50;5124067;28;20592;-68